19MA weather

Waine Heliport
Nantucket, Massachusetts, United States

Public forecast

Using degrees Fahrenheit for public forecast. Weather courtesy of forecast.io.

METAR (pilot weather report)

Closest report is Nantucket Memorial Airport, 4.5 nm (8.3 km) ESE. Retrieved 2019/07/21 02:53 UTC (31 minutes ago):

KACK 210253Z AUTO 24008KT 3SM HZ CLR 22/22 A2978 RMK AO2 SLP085 T02220217 58003

TAF (pilot weather forecast)

Forecast is more than 12 hours old.

Closest forecast is Nantucket Memorial Airport, 4.5 nm (8.3 km) ESE. Retrieved 2019/07/20 00:24 UTC (1 day ago):

TAF KACK 202322Z 2100/2124 22010KT 4SM HZ SCT150 FM210900 24010KT 5SM BR BKN100 FM211200 25011KT P6SM SCT120 FM212000 24013KT P6SM FEW250